Time;durP1;ratioP1;P1;durP2;ratioP2;P2;SDS_P1;SDS_P2;PMS_P1;PMS_P2;Temp;Humidity;BMP_temperature;BMP_pressure;BME280_temperature;BME280_humidity;BME280_pressure;Samples;Min_cycle;Max_cycle;Signal;HPM_P1;HPM_P2
2022/10/23 06:21:49;;;;;;;1.30;1.20;;;9.00;99.90;;;;;;5113728;27;20855;-83
2022/10/23 06:24:15;;;;;;;1.40;1.30;;;9.10;99.90;;;;;;5078906;28;20179;-83
2022/10/23 07:11:14;;;;;;;5.80;3.90;;;10.10;99.90;;;;;;5118155;27;21082;-84
2022/10/23 07:14:20;;;;;;;5.80;3.70;;;10.00;99.90;;;;;;5130176;27;20557;-84
2022/10/23 07:16:46;;;;;;;9.13;4.93;;;10.10;99.90;;;;;;5095637;28;20175;-83
2022/10/23 07:19:11;;;;;;;6.13;3.97;;;10.20;99.90;;;;;;5095742;28;20356;-83
2022/10/23 07:21:37;;;;;;;3.27;2.90;;;10.30;99.90;;;;;;5094212;28;20223;-83
2022/10/23 07:24:03;;;;;;;2.87;2.03;;;10.40;99.90;;;;;;5096155;28;20592;-84
2022/10/23 07:26:29;;;;;;;4.93;3.13;;;10.50;99.90;;;;;;5096918;28;20183;-83
2022/10/23 07:28:55;;;;;;;2.53;2.33;;;10.70;99.90;;;;;;5097380;28;20522;-81
2022/10/23 07:31:22;;;;;;;3.47;1.80;;;10.80;99.90;;;;;;5096597;28;20191;-83
2022/10/23 07:33:49;;;;;;;1.83;1.70;;;10.90;99.90;;;;;;5094572;28;20215;-85
2022/10/23 07:36:14;;;;;;;1.77;1.67;;;11.00;99.90;;;;;;5094018;28;20646;-84
2022/10/23 07:38:40;;;;;;;1.33;1.07;;;;;;;;;;5094868;28;20225;-83
2022/10/23 07:41:06;;;;;;;2.63;0.80;;;11.30;99.90;;;;;;5094981;28;20195;-84
2022/10/23 07:43:33;;;;;;;1.07;0.90;;;11.40;99.90;;;;;;5094389;28;20557;-83
2022/10/23 07:45:59;;;;;;;1.20;1.00;;;11.60;99.90;;;;;;5092904;28;20217;-83
2022/10/23 07:48:26;;;;;;;1.73;1.00;;;11.60;99.90;;;;;;5092654;28;20213;-83
2022/10/23 07:50:54;;;;;;;1.00;0.90;;;11.70;99.90;;;;;;5093563;28;20235;-84
2022/10/23 07:53:22;;;;;;;2.80;1.20;;;11.70;99.90;;;;;;5092452;28;20207;-83
2022/10/23 07:55:52;;;;;;;1.20;0.80;;;11.80;99.90;;;;;;5093917;28;20184;-85
2022/10/23 07:58:18;;;;;;;3.07;0.83;;;11.90;99.90;;;;;;5095206;28;20207;-84
2022/10/23 08:00:44;;;;;;;1.20;0.80;;;12.10;99.90;;;;;;5094273;28;20222;-84
2022/10/23 08:03:11;;;;;;;3.10;0.70;;;12.40;99.90;;;;;;5096200;28;20214;-84
2022/10/23 08:05:37;;;;;;;1.67;0.90;;;12.50;99.90;;;;;;5095496;28;20195;-84
2022/10/23 08:08:03;;;;;;;0.70;0.70;;;12.80;99.90;;;;;;5096221;28;20173;-84
2022/10/23 08:10:29;;;;;;;0.70;0.70;;;13.50;99.90;;;;;;5096389;28;20196;-85
2022/10/23 08:12:54;;;;;;;1.27;0.80;;;13.40;99.90;;;;;;5095744;28;20218;-85
2022/10/23 08:15:20;;;;;;;0.70;0.70;;;;;;;;;;5095117;28;20324;-83
2022/10/23 08:17:46;;;;;;;2.97;0.87;;;13.50;99.90;;;;;;5097030;28;20179;-82
2022/10/23 08:20:12;;;;;;;1.47;0.73;;;13.70;99.90;;;;;;5095721;28;20183;-83
2022/10/23 08:22:38;;;;;;;1.60;1.00;;;14.10;99.90;;;;;;5094097;28;20180;-83
2022/10/23 08:25:05;;;;;;;1.67;1.10;;;14.40;99.90;;;;;;5084870;28;20177;-84
2022/10/23 08:27:30;;;;;;;1.57;0.70;;;14.70;99.90;;;;;;5080383;28;20181;-82
2022/10/23 08:29:56;;;;;;;1.20;0.83;;;15.20;99.90;;;;;;5083132;28;20627;-83
2022/10/23 08:32:22;;;;;;;1.27;1.10;;;15.50;99.90;;;;;;5081569;28;20196;-86
2022/10/23 08:34:47;;;;;;;3.30;1.70;;;15.80;99.90;;;;;;5080175;28;20180;-86
2022/10/23 08:37:13;;;;;;;1.60;1.40;;;16.00;99.90;;;;;;5076718;28;20172;-84
2022/10/23 08:39:39;;;;;;;2.40;1.33;;;16.10;99.90;;;;;;5078809;28;20169;-83
2022/10/23 08:42:05;;;;;;;1.70;1.60;;;16.30;99.90;;;;;;5076923;28;20641;-83
2022/10/23 08:44:50;;;;;;;1.77;1.00;;;16.30;99.90;;;;;;5077905;28;20180;-82
2022/10/23 08:47:24;;;;;;;2.10;1.30;;;16.20;99.90;;;;;;5077165;28;20275;-83
2022/10/23 08:49:55;;;;;;;1.37;1.10;;;16.00;99.90;;;;;;5077352;28;20238;-84
2022/10/23 08:52:28;;;;;;;1.37;0.93;;;16.00;99.90;;;;;;5078039;28;20198;-86
2022/10/23 08:55:17;;;;;;;1.23;0.90;;;16.20;99.90;;;;;;5079281;28;20261;-83
2022/10/23 08:58:09;;;;;;;1.53;0.90;;;16.40;99.90;;;;;;5080292;28;20210;-79
2022/10/23 09:00:35;;;;;;;3.70;0.80;;;17.20;99.90;;;;;;5077790;28;20638;-81
2022/10/23 09:03:04;;;;;;;1.43;1.33;;;17.40;99.90;;;;;;5079561;28;20679;-86
2022/10/23 09:05:38;;;;;;;2.40;1.10;;;17.60;99.90;;;;;;5080103;28;20181;-82
2022/10/23 09:08:26;;;;;;;3.27;1.27;;;18.00;99.90;;;;;;5080640;28;20161;-84
2022/10/23 09:11:18;;;;;;;1.60;1.50;;;18.70;99.90;;;;;;5080834;28;20193;-83
2022/10/23 09:14:08;;;;;;;1.20;1.10;;;18.70;99.90;;;;;;5076570;28;20208;-83
2022/10/23 09:17:01;;;;;;;1.20;1.00;;;18.80;99.90;;;;;;5077086;28;20169;-86
2022/10/23 09:19:30;;;;;;;1.37;0.90;;;18.70;99.90;;;;;;5075933;28;20177;-83
2022/10/23 09:21:56;;;;;;;1.00;0.90;;;18.50;99.90;;;;;;5077342;28;20192;-83
2022/10/23 09:24:24;;;;;;;1.23;0.90;;;18.70;99.90;;;;;;5076249;28;20181;-84
2022/10/23 09:26:52;;;;;;;0.70;0.70;;;18.90;99.90;;;;;;5076063;28;20212;-81
2022/10/23 09:29:34;;;;;;;2.17;0.87;;;19.10;99.90;;;;;;5075900;28;20173;-85
2022/10/23 09:32:06;;;;;;;0.87;0.70;;;19.10;99.90;;;;;;5077410;28;20194;-84
2022/10/23 09:34:33;;;;;;;1.47;0.83;;;19.50;99.90;;;;;;5077902;28;20170;-85
2022/10/23 09:37:19;;;;;;;0.90;0.80;;;19.90;99.90;;;;;;5074912;28;20182;-86
2022/10/23 09:39:45;;;;;;;1.37;0.90;;;20.30;99.90;;;;;;5077521;28;20165;-85
2022/10/23 09:42:24;;;;;;;1.27;0.87;;;20.60;99.90;;;;;;5077088;28;20247;-86
2022/10/23 09:44:52;;;;;;;0.97;0.90;;;20.70;99.90;;;;;;5077197;28;20225;-83
2022/10/23 09:47:21;;;;;;;2.07;0.70;;;20.50;99.90;;;;;;5075516;28;20218;-84
2022/10/23 09:49:49;;;;;;;1.60;1.03;;;20.20;99.90;;;;;;5076539;28;20180;-85
2022/10/23 09:52:16;;;;;;;2.17;0.93;;;20.20;99.90;;;;;;5075315;28;20189;-84
2022/10/23 09:55:08;;;;;;;1.30;1.00;;;20.40;99.90;;;;;;5075467;28;20169;-84
2022/10/23 09:57:37;;;;;;;1.20;1.00;;;20.90;99.90;;;;;;5072082;28;20191;-84
2022/10/23 10:00:15;;;;;;;4.73;0.90;;;22.00;99.90;;;;;;5076784;28;20262;-83
2022/10/23 10:02:54;;;;;;;3.40;0.90;;;22.00;99.90;;;;;;5078429;28;20177;-84
2022/10/23 10:05:29;;;;;;;1.23;1.00;;;22.30;99.90;;;;;;5077377;28;20180;-84
2022/10/23 10:08:32;;;;;;;1.77;1.00;;;22.60;99.90;;;;;;5076299;28;20177;-85
2022/10/23 10:11:13;;;;;;;1.10;1.00;;;22.40;99.90;;;;;;5076504;28;20554;-85
2022/10/23 10:14:00;;;;;;;1.40;0.80;;;22.40;99.90;;;;;;5076464;28;20239;-88
2022/10/23 10:16:31;;;;;;;0.90;0.90;;;21.90;99.90;;;;;;5076114;28;20233;-87
2022/10/23 10:19:09;;;;;;;1.67;1.03;;;21.60;99.90;;;;;;5077519;28;20170;-86
2022/10/23 10:22:07;;;;;;;1.00;0.90;;;21.20;99.90;;;;;;5078775;28;20193;-84
2022/10/23 10:24:45;;;;;;;1.57;1.00;;;21.30;99.90;;;;;;5077884;28;20179;-86
2022/10/23 10:27:29;;;;;;;0.80;0.80;;;21.40;99.90;;;;;;5078374;28;20502;-84
2022/10/23 10:29:55;;;;;;;1.67;0.97;;;21.30;99.90;;;;;;5078177;28;20252;-85
2022/10/23 10:32:38;;;;;;;2.30;1.10;;;21.60;99.90;;;;;;5078408;28;20255;-85
2022/10/23 10:35:25;;;;;;;0.80;0.73;;;21.50;99.90;;;;;;5078358;28;20599;-85
2022/10/23 10:37:51;;;;;;;1.13;1.03;;;;;;;;;;5077209;28;20175;-85
2022/10/23 10:40:17;;;;;;;2.10;1.20;;;;;;;;;;5082594;28;20195;-87
2022/10/23 10:42:43;;;;;;;1.70;0.90;;;;;;;;;;5090932;28;20192;-85
2022/10/23 10:45:17;;;;;;;3.67;1.00;;;22.60;99.90;;;;;;5075562;28;20714;-85
2022/10/23 10:48:06;;;;;;;1.27;0.93;;;23.00;99.90;;;;;;5079443;28;20177;-85
2022/10/23 10:50:52;;;;;;;2.37;1.00;;;23.30;99.90;;;;;;5076869;28;20289;-84
2022/10/23 10:53:37;;;;;;;1.40;1.10;;;23.30;99.90;;;;;;5076728;28;20213;-85
2022/10/23 10:56:06;;;;;;;6.37;1.30;;;23.50;99.90;;;;;;5078257;28;20184;-86
2022/10/23 10:58:51;;;;;;;2.40;1.00;;;23.70;99.90;;;;;;5078190;28;20176;-84
2022/10/23 11:01:34;;;;;;;2.80;1.07;;;24.00;99.90;;;;;;5076966;28;20204;-87
2022/10/23 11:04:21;;;;;;;1.73;0.90;;;24.20;99.90;;;;;;5077578;28;20199;-86
2022/10/23 11:06:51;;;;;;;1.63;1.00;;;24.90;99.90;;;;;;5078396;28;20173;-85
2022/10/23 11:09:21;;;;;;;4.63;1.77;;;25.20;99.90;;;;;;5078822;28;20639;-84
2022/10/23 11:11:47;;;;;;;3.07;0.80;;;25.40;99.90;;;;;;5078343;28;20192;-87
2022/10/23 11:14:22;;;;;;;2.50;0.80;;;25.30;99.90;;;;;;5076915;28;20216;-83
2022/10/23 11:16:58;;;;;;;2.97;1.13;;;25.20;99.90;;;;;;5078701;28;20239;-87
2022/10/23 11:19:39;;;;;;;1.33;1.00;;;25.00;99.90;;;;;;5077181;28;20176;-86
2022/10/23 11:22:11;;;;;;;3.80;0.87;;;25.10;99.90;;;;;;5077502;28;20612;-86
2022/10/23 11:24:53;;;;;;;3.10;0.97;;;25.10;99.90;;;;;;5077627;28;20230;-88
2022/10/23 11:28:01;;;;;;;1.00;0.77;;;25.30;99.90;;;;;;5077088;28;20177;-88
2022/10/23 11:30:51;;;;;;;0.90;0.80;;;24.70;99.90;;;;;;5077226;28;20233;-86
2022/10/23 11:33:19;;;;;;;2.10;1.10;;;24.70;99.90;;;;;;5077916;28;20207;-85
2022/10/23 11:35:56;;;;;;;2.30;0.70;;;24.20;99.90;;;;;;5077696;28;20173;-84
2022/10/23 11:38:31;;;;;;;0.70;0.70;;;24.60;99.90;;;;;;5077711;28;20252;-85
2022/10/23 11:41:05;;;;;;;1.73;0.77;;;24.70;99.90;;;;;;5078030;28;20189;-84
2022/10/23 11:43:35;;;;;;;2.60;0.90;;;24.80;99.90;;;;;;5078655;28;20173;-84
2022/10/23 11:46:26;;;;;;;1.13;0.93;;;24.80;99.90;;;;;;5078359;28;20216;-83
2022/10/23 11:48:54;;;;;;;3.60;1.00;;;24.50;99.90;;;;;;5077794;28;20203;-85
2022/10/23 11:51:36;;;;;;;1.20;1.00;;;24.10;99.90;;;;;;5078125;28;20208;-84
2022/10/23 11:54:12;;;;;;;1.53;1.00;;;23.90;99.60;;;;;;5076643;28;20209;-85
2022/10/23 11:56:50;;;;;;;2.37;0.87;;;23.80;99.90;;;;;;5077219;28;20587;-85
2022/10/23 11:59:29;;;;;;;2.60;0.97;;;23.80;99.90;;;;;;5077428;28;20225;-85
2022/10/23 12:01:58;;;;;;;2.00;1.00;;;23.80;99.90;;;;;;5081192;28;20210;-85
2022/10/23 12:04:48;;;;;;;2.13;0.80;;;23.50;99.90;;;;;;5083103;28;20188;-85
2022/10/23 12:07:28;;;;;;;1.93;0.90;;;23.50;99.90;;;;;;5080218;28;20200;-83
2022/10/23 12:10:19;;;;;;;2.90;0.80;;;23.10;99.90;;;;;;5081449;28;20183;-85
2022/10/23 12:12:58;;;;;;;2.63;1.00;;;23.10;99.90;;;;;;5086229;28;20812;-85
2022/10/23 12:15:25;;;;;;;3.67;1.17;;;22.90;99.90;;;;;;5079889;28;20185;-85
2022/10/23 12:17:53;;;;;;;4.80;1.23;;;22.80;99.90;;;;;;5079748;28;20266;-85
2022/10/23 12:20:50;;;;;;;3.87;1.10;;;22.90;99.90;;;;;;5081639;28;20198;-84
2022/10/23 12:23:40;;;;;;;1.93;1.20;;;22.90;99.90;;;;;;5077766;28;20196;-85
2022/10/23 12:26:06;;;;;;;1.10;1.00;;;;;;;;;;5079676;28;20215;-85
2022/10/23 12:28:57;;;;;;;1.97;1.30;;;25.20;99.90;;;;;;5079747;28;20181;-86
2022/10/23 12:31:35;;;;;;;2.10;0.90;;;27.40;99.90;;;;;;5081243;28;20213;-86
2022/10/23 12:34:13;;;;;;;2.87;0.97;;;28.70;99.90;;;;;;5079071;28;20213;-85
2022/10/23 12:36:47;;;;;;;3.90;1.40;;;28.60;99.90;;;;;;5078649;28;20180;-84
2022/10/23 12:39:38;;;;;;;1.13;0.93;;;28.60;99.90;;;;;;5079790;28;20250;-85
2022/10/23 12:42:14;;;;;;;3.53;1.23;;;28.70;99.30;;;;;;5080302;28;20330;-85
2022/10/23 12:44:40;;;;;;;1.43;1.00;;;28.80;99.90;;;;;;5079789;28;20251;-86
2022/10/23 12:47:06;;;;;;;1.23;0.77;;;28.60;98.70;;;;;;5082636;28;20226;-84
2022/10/23 12:49:33;;;;;;;2.80;0.87;;;28.50;99.50;;;;;;5089834;28;20533;-85
2022/10/23 12:51:59;;;;;;;0.87;0.70;;;;;;;;;;5090473;28;20190;-85
2022/10/23 12:54:25;;;;;;;2.23;0.60;;;;;;;;;;5092819;28;20189;-84
2022/10/23 12:56:52;;;;;;;0.73;0.70;;;28.00;99.90;;;;;;5090823;28;20178;-84
2022/10/23 12:59:37;;;;;;;0.90;0.80;;;27.80;99.90;;;;;;5090065;28;20174;-85
2022/10/23 13:02:23;;;;;;;1.87;1.00;;;27.60;99.90;;;;;;5085097;28;20194;-85
2022/10/23 13:04:51;;;;;;;2.00;0.93;;;27.00;99.90;;;;;;5083469;28;20200;-84
2022/10/23 13:07:20;;;;;;;4.67;1.03;;;26.70;99.90;;;;;;5084531;28;20172;-85
2022/10/23 13:09:46;;;;;;;4.67;1.00;;;;;;;;;;5084526;28;20172;-87
2022/10/23 13:12:33;;;;;;;2.70;1.13;;;26.50;99.90;;;;;;5085009;28;20229;-86
2022/10/23 13:15:15;;;;;;;1.43;0.80;;;25.40;99.90;;;;;;5084137;28;20165;-85
2022/10/23 13:18:00;;;;;;;4.40;1.10;;;25.70;99.90;;;;;;5078905;28;20646;-85
2022/10/23 13:20:39;;;;;;;1.30;1.13;;;24.50;99.90;;;;;;5077332;28;20219;-86
2022/10/23 13:23:16;;;;;;;1.00;0.90;;;24.40;99.90;;;;;;5077001;28;20270;-85
2022/10/23 13:25:42;;;;;;;3.13;1.00;;;23.90;99.90;;;;;;5078781;28;20172;-85
2022/10/23 13:28:08;;;;;;;0.97;0.80;;;;;;;;;;5076818;28;20174;-86
2022/10/23 13:30:41;;;;;;;2.10;0.90;;;22.80;99.90;;;;;;5077694;28;20683;-83
2022/10/23 13:33:24;;;;;;;1.10;1.00;;;22.70;99.90;;;;;;5078065;28;20666;-85
2022/10/23 13:36:00;;;;;;;2.63;1.07;;;22.40;99.90;;;;;;5077143;28;20221;-85
2022/10/23 13:38:34;;;;;;;6.10;1.37;;;22.40;99.90;;;;;;5077004;28;20711;-85
2022/10/23 13:41:02;;;;;;;1.20;1.00;;;22.90;99.90;;;;;;5078406;28;20200;-85
2022/10/23 13:43:29;;;;;;;1.90;1.00;;;23.20;99.90;;;;;;5076940;28;20210;-85
2022/10/23 13:45:55;;;;;;;2.20;1.40;;;;;;;;;;5078324;28;20166;-85
2022/10/23 13:48:21;;;;;;;1.53;1.10;;;;;;;;;;5076578;28;20209;-86
2022/10/23 13:50:48;;;;;;;2.63;1.50;;;;;;;;;;5076990;28;20196;-85
2022/10/23 13:53:14;;;;;;;4.70;1.13;;;23.70;99.90;;;;;;5076644;28;20649;-85
2022/10/23 13:55:42;;;;;;;3.27;1.17;;;23.30;99.90;;;;;;5077209;28;20177;-84
2022/10/23 13:58:09;;;;;;;1.23;1.10;;;23.10;99.90;;;;;;5076571;28;20182;-85
2022/10/23 14:00:36;;;;;;;4.17;1.30;;;22.80;99.90;;;;;;5075603;28;20205;-85
2022/10/23 14:03:02;;;;;;;5.73;1.37;;;;;;;;;;5075483;28;20198;-82
2022/10/23 14:05:29;;;;;;;5.40;1.50;;;22.40;99.90;;;;;;5075346;28;20179;-84
2022/10/23 14:07:55;;;;;;;1.93;1.30;;;;;;;;;;5078595;28;20179;-85
2022/10/23 14:10:22;;;;;;;3.90;1.30;;;;;;;;;;5076947;28;20216;-85
2022/10/23 14:12:53;;;;;;;6.07;1.40;;;21.70;99.90;;;;;;5076687;28;20724;-85
2022/10/23 14:15:19;;;;;;;5.93;1.57;;;21.70;99.90;;;;;;5077015;28;20210;-86
2022/10/23 14:17:45;;;;;;;6.37;1.67;;;;;;;;;;5076595;28;20184;-87
2022/10/23 14:20:11;;;;;;;7.20;1.27;;;21.00;99.90;;;;;;5077185;28;20181;-86
2022/10/23 14:22:37;;;;;;;14.23;2.13;;;21.00;99.90;;;;;;5077861;28;20197;-87
2022/10/23 14:25:04;;;;;;;5.63;2.03;;;20.90;99.90;;;;;;5077261;28;20657;-86
2022/10/23 14:27:30;;;;;;;4.10;1.87;;;20.80;99.90;;;;;;5077330;28;20259;-87
2022/10/23 14:29:56;;;;;;;4.47;1.50;;;20.70;99.90;;;;;;5078737;28;20673;-87
2022/10/23 14:32:22;;;;;;;10.73;1.80;;;20.50;99.90;;;;;;5079512;28;20189;-86
2022/10/23 14:34:53;;;;;;;10.40;1.70;;;20.50;99.90;;;;;;5078888;28;20177;-86
2022/10/23 14:37:19;;;;;;;6.77;1.20;;;20.40;99.90;;;;;;5095071;28;20536;-85
2022/10/23 14:39:45;;;;;;;6.33;1.73;;;20.20;99.90;;;;;;5076947;28;20170;-83
2022/10/23 14:42:12;;;;;;;4.77;1.50;;;20.20;99.90;;;;;;5075506;28;20197;-84
2022/10/23 14:44:38;;;;;;;6.10;1.20;;;20.10;99.90;;;;;;5076000;28;20180;-85
2022/10/23 14:47:04;;;;;;;2.67;1.20;;;20.10;99.90;;;;;;5077147;28;20173;-83
2022/10/23 14:49:30;;;;;;;9.10;2.27;;;20.00;99.90;;;;;;5075707;28;20177;-81
2022/10/23 14:51:56;;;;;;;6.07;1.40;;;20.00;99.90;;;;;;5077346;28;20227;-85
2022/10/23 14:54:21;;;;;;;5.70;1.70;;;19.90;99.90;;;;;;5076143;28;20173;-83
2022/10/23 14:56:47;;;;;;;2.87;1.17;;;19.90;99.90;;;;;;5078039;28;20179;-82
2022/10/23 14:59:14;;;;;;;3.13;1.63;;;19.90;99.90;;;;;;5078081;28;20168;-83
2022/10/23 15:01:44;;;;;;;3.77;1.57;;;19.70;99.90;;;;;;5077491;28;20232;-84
2022/10/23 15:04:10;;;;;;;10.73;1.50;;;19.70;99.90;;;;;;5077586;28;20295;-84
2022/10/23 15:06:36;;;;;;;11.53;2.13;;;19.60;99.90;;;;;;5077586;28;20203;-82
2022/10/23 15:09:03;;;;;;;18.83;2.80;;;19.50;99.90;;;;;;5077490;28;20268;-84
2022/10/23 15:11:29;;;;;;;8.67;2.90;;;19.40;99.90;;;;;;5077038;28;20198;-82
2022/10/23 15:13:57;;;;;;;7.53;3.07;;;19.30;99.90;;;;;;5076425;28;20192;-86
2022/10/23 15:16:23;;;;;;;19.30;4.30;;;19.20;99.90;;;;;;5077227;28;20703;-83
2022/10/23 15:18:49;;;;;;;14.73;4.90;;;19.10;99.90;;;;;;5076037;28;20208;-84
2022/10/23 15:21:15;;;;;;;25.30;5.13;;;18.90;99.90;;;;;;5075035;28;20205;-86
2022/10/23 15:23:43;;;;;;;16.80;4.10;;;18.80;99.90;;;;;;5074911;28;20666;-87
2022/10/23 15:26:20;;;;;;;21.67;4.37;;;18.80;99.90;;;;;;5074657;28;20201;-87
2022/10/23 15:28:51;;;;;;;18.80;3.87;;;18.70;99.90;;;;;;5074889;28;20653;-84
2022/10/23 15:31:28;;;;;;;26.67;8.57;;;18.50;99.90;;;;;;5074911;28;20197;-84
2022/10/23 15:33:56;;;;;;;12.13;3.80;;;18.50;99.90;;;;;;5075277;28;20180;-84
2022/10/23 15:36:21;;;;;;;16.50;3.97;;;18.40;99.90;;;;;;5079149;28;20181;-85
2022/10/23 15:38:48;;;;;;;20.40;3.17;;;18.30;99.90;;;;;;5081270;28;20272;-84
2022/10/23 15:41:19;;;;;;;12.93;2.90;;;18.20;99.90;;;;;;5085778;28;20557;-87
2022/10/23 15:43:45;;;;;;;5.63;3.13;;;18.10;99.90;;;;;;5080553;28;20237;-83
2022/10/23 15:46:10;;;;;;;13.30;3.23;;;18.10;99.90;;;;;;5079474;28;20176;-86
2022/10/23 15:48:36;;;;;;;27.77;3.73;;;17.90;99.90;;;;;;5082378;28;20549;-84
2022/10/23 15:51:01;;;;;;;13.60;6.53;;;17.80;99.90;;;;;;5081603;28;20725;-85
2022/10/23 15:53:28;;;;;;;23.00;10.90;;;;;;;;;;5080780;28;20641;-85
2022/10/23 15:55:54;;;;;;;13.10;6.63;;;;;;;;;;5078978;28;20195;-85
2022/10/23 15:58:20;;;;;;;20.53;11.97;;;;;;;;;;5080230;28;20177;-86
2022/10/23 16:00:46;;;;;;;23.53;10.93;;;;;;;;;;5079408;28;20536;-85
2022/10/23 16:03:12;;;;;;;16.90;8.50;;;;;;;;;;5077349;28;20208;-82
2022/10/23 16:05:38;;;;;;;10.97;6.03;;;17.40;99.90;;;;;;5078869;28;20251;-84
2022/10/23 16:08:05;;;;;;;13.80;6.77;;;;;;;;;;5081330;28;20219;-85
2022/10/23 16:10:31;;;;;;;13.43;7.17;;;17.20;99.90;;;;;;5080901;28;20670;-87
2022/10/23 16:12:56;;;;;;;20.23;8.37;;;17.10;99.90;;;;;;5081550;28;20201;-84
2022/10/23 16:15:23;;;;;;;24.33;12.53;;;17.00;99.90;;;;;;5082651;28;20180;-85
2022/10/23 16:17:49;;;;;;;60.43;30.73;;;;;;;;;;5088530;28;20184;-83
2022/10/23 16:20:15;;;;;;;106.63;51.13;;;;;;;;;;5091016;28;20189;-86
2022/10/23 16:22:42;;;;;;;96.23;47.83;;;;;;;;;;5096359;28;20199;-83
2022/10/23 16:25:08;;;;;;;109.13;53.73;;;;;;;;;;5094140;28;20178;-83
2022/10/23 16:27:34;;;;;;;132.50;83.17;;;16.70;99.90;;;;;;5088983;28;20179;-84
2022/10/23 16:30:00;;;;;;;141.53;70.53;;;;;;;;;;5088351;28;20203;-83
2022/10/23 16:32:25;;;;;;;126.40;62.87;;;16.40;99.90;;;;;;5079197;28;20287;-83
2022/10/23 16:34:52;;;;;;;83.77;45.13;;;16.40;99.90;;;;;;5080297;28;20238;-82
2022/10/23 16:37:17;;;;;;;79.03;56.70;;;16.20;99.90;;;;;;5079347;28;20174;-83
2022/10/23 16:39:43;;;;;;;50.93;36.17;;;16.20;99.90;;;;;;5079449;28;20209;-83
2022/10/23 16:42:09;;;;;;;53.60;33.63;;;16.10;99.90;;;;;;5085845;28;20197;-85
2022/10/23 16:44:35;;;;;;;22.13;13.30;;;;;;;;;;5080602;28;20262;-84
2022/10/23 16:47:01;;;;;;;35.27;22.80;;;16.10;99.90;;;;;;5078853;28;20215;-84
2022/10/23 16:49:28;;;;;;;31.33;19.13;;;16.10;99.90;;;;;;5080797;28;20170;-85
2022/10/23 16:51:54;;;;;;;33.60;20.23;;;16.00;99.90;;;;;;5083260;28;20241;-86
2022/10/23 16:54:20;;;;;;;37.67;20.97;;;;;;;;;;5080384;28;20546;-85
2022/10/23 16:56:47;;;;;;;35.97;21.37;;;;;;;;;;5079820;28;20190;-86
2022/10/23 16:59:12;;;;;;;30.60;18.93;;;16.00;99.90;;;;;;5082029;28;20171;-84
2022/10/23 17:01:39;;;;;;;28.60;18.23;;;;;;;;;;5080371;28;20198;-85
2022/10/23 17:04:07;;;;;;;30.93;14.83;;;16.00;99.90;;;;;;5083386;28;20191;-84
2022/10/23 17:06:36;;;;;;;21.63;14.67;;;16.00;99.90;;;;;;5082550;28;20556;-84
2022/10/23 17:09:03;;;;;;;24.07;14.43;;;16.00;99.90;;;;;;5082213;28;20516;-84
2022/10/23 17:11:32;;;;;;;21.80;13.53;;;16.10;99.90;;;;;;5082234;28;20282;-86
2022/10/23 17:14:01;;;;;;;22.53;13.50;;;16.00;99.90;;;;;;5082973;28;20200;-86
2022/10/23 17:16:36;;;;;;;36.33;21.53;;;16.00;99.90;;;;;;5081622;28;20175;-85
2022/10/23 17:19:03;;;;;;;23.97;15.50;;;16.00;99.90;;;;;;5082584;28;20245;-83
2022/10/23 17:21:34;;;;;;;23.77;13.97;;;15.80;99.90;;;;;;5082840;28;20202;-84
2022/10/23 17:24:00;;;;;;;14.50;10.27;;;;;;;;;;5080906;28;20201;-85
2022/10/23 17:26:26;;;;;;;8.70;5.70;;;16.10;99.90;;;;;;5081675;28;20177;-83
2022/10/23 17:28:52;;;;;;;9.93;6.50;;;;;;;;;;5082963;28;20230;-84
2022/10/23 17:31:24;;;;;;;34.87;26.37;;;16.00;99.90;;;;;;5081995;28;20199;-83
2022/10/23 17:33:53;;;;;;;9.17;6.40;;;16.10;99.90;;;;;;5082184;28;20178;-86
2022/10/23 17:36:20;;;;;;;8.87;6.60;;;15.90;99.90;;;;;;5083242;28;20181;-84
2022/10/23 17:38:46;;;;;;;7.93;6.30;;;15.60;99.90;;;;;;5081939;28;20588;-83
2022/10/23 17:41:15;;;;;;;19.53;10.83;;;15.70;99.90;;;;;;5083898;28;20262;-84
2022/10/23 17:43:42;;;;;;;21.00;13.67;;;15.90;99.90;;;;;;5084272;28;20199;-83
2022/10/23 17:46:10;;;;;;;21.53;12.90;;;15.70;99.90;;;;;;5083547;28;20210;-84
2022/10/23 17:48:36;;;;;;;16.93;12.50;;;;;;;;;;5084946;28;20260;-85
2022/10/23 17:51:06;;;;;;;17.83;11.27;;;15.70;99.90;;;;;;5088380;28;20181;-84
2022/10/23 17:53:33;;;;;;;15.90;11.30;;;15.70;99.90;;;;;;5080858;28;20230;-85
2022/10/23 17:56:04;;;;;;;22.07;12.73;;;15.50;99.90;;;;;;5079964;28;20177;-84
2022/10/23 17:58:30;;;;;;;20.00;13.93;;;15.30;99.90;;;;;;5079654;28;20211;-83
2022/10/23 18:00:56;;;;;;;18.40;12.87;;;;;;;;;;5081324;28;20196;-84
2022/10/23 18:03:22;;;;;;;17.63;11.33;;;15.20;99.90;;;;;;5080292;28;20338;-85
2022/10/23 18:05:48;;;;;;;13.57;10.07;;;;;;;;;;5079941;28;20204;-83
2022/10/23 18:08:14;;;;;;;18.47;12.80;;;;;;;;;;5079560;28;20200;-84
2022/10/23 18:10:40;;;;;;;10.67;8.93;;;15.00;99.90;;;;;;5079297;28;20258;-84
2022/10/23 18:13:06;;;;;;;17.00;12.47;;;;;;;;;;5079867;28;20540;-83
2022/10/23 18:15:34;;;;;;;18.70;12.73;;;15.10;99.90;;;;;;5081751;28;20262;-82
2022/10/23 18:18:06;;;;;;;18.10;12.87;;;14.80;99.90;;;;;;5080336;28;20191;-84
2022/10/23 18:20:32;;;;;;;12.33;9.33;;;;;;;;;;5080647;28;20201;-84
2022/10/23 18:22:58;;;;;;;16.57;8.53;;;14.90;99.90;;;;;;5080611;28;20272;-83
2022/10/23 18:25:24;;;;;;;6.00;4.20;;;;;;;;;;5081774;28;20217;-86
2022/10/23 18:27:50;;;;;;;5.27;4.20;;;;;;;;;;5081721;28;20230;-84
2022/10/23 18:30:16;;;;;;;6.83;4.80;;;;;;;;;;5081400;28;20248;-85
2022/10/23 18:32:42;;;;;;;11.43;5.13;;;;;;;;;;5081995;28;20637;-84
2022/10/23 18:35:08;;;;;;;7.13;5.07;;;;;;;;;;5081859;28;20176;-85
2022/10/23 18:37:34;;;;;;;9.57;6.97;;;;;;;;;;5080581;28;20203;-85
2022/10/23 18:40:00;;;;;;;12.33;6.63;;;;;;;;;;5081507;28;20177;-84
2022/10/23 18:42:26;;;;;;;7.43;6.03;;;;;;;;;;5080531;28;20181;-84
2022/10/23 18:44:52;;;;;;;12.03;7.40;;;;;;;;;;5081305;28;20177;-84
2022/10/23 18:47:18;;;;;;;8.30;6.33;;;;;;;;;;5081019;28;20169;-86
2022/10/23 18:49:44;;;;;;;7.30;4.97;;;;;;;;;;5079895;28;20634;-85
2022/10/23 18:52:10;;;;;;;9.63;5.63;;;;;;;;;;5080801;28;20266;-86
2022/10/23 18:54:36;;;;;;;5.77;4.93;;;15.30;99.90;;;;;;5080515;28;20180;-84
2022/10/23 18:57:02;;;;;;;8.03;5.13;;;;;;;;;;5079579;28;20207;-84
2022/10/23 18:59:28;;;;;;;6.70;5.40;;;15.20;99.90;;;;;;5080819;28;20184;-84
2022/10/23 19:01:54;;;;;;;7.77;5.27;;;;;;;;;;5080307;28;20659;-84
2022/10/23 19:04:20;;;;;;;11.00;5.03;;;15.40;99.90;;;;;;5079934;28;20256;-85
2022/10/23 19:06:47;;;;;;;6.03;4.20;;;15.20;99.90;;;;;;5081480;28;20207;-85
2022/10/23 19:09:13;;;;;;;11.87;7.90;;;15.20;99.90;;;;;;5080772;28;20173;-85
2022/10/23 19:11:40;;;;;;;6.80;4.60;;;15.20;99.90;;;;;;5080721;28;20195;-85
2022/10/23 19:14:06;;;;;;;7.07;3.97;;;15.50;99.90;;;;;;5079620;28;20189;-84
2022/10/23 19:17:00;;;;;;;6.90;4.03;;;15.20;99.90;;;;;;5080594;28;20259;-85
2022/10/23 19:19:33;;;;;;;6.57;4.10;;;15.40;99.90;;;;;;5081542;28;20289;-82
2022/10/23 19:22:00;;;;;;;5.57;4.50;;;15.50;99.90;;;;;;5079714;28;20596;-85
2022/10/23 19:24:38;;;;;;;8.63;4.30;;;15.40;99.90;;;;;;5080834;28;20189;-84
2022/10/23 19:27:04;;;;;;;7.80;4.37;;;15.30;99.90;;;;;;5079904;28;20222;-82
2022/10/23 19:29:31;;;;;;;5.83;4.33;;;15.30;99.90;;;;;;5082115;28;20242;-85
2022/10/23 19:31:57;;;;;;;9.87;5.83;;;15.00;99.90;;;;;;5080602;28;20277;-84
2022/10/23 19:34:23;;;;;;;8.93;4.20;;;15.40;99.90;;;;;;5081675;28;20258;-85
2022/10/23 19:36:51;;;;;;;4.27;3.33;;;;;;;;;;5083054;28;20173;-83
2022/10/23 19:39:17;;;;;;;6.67;3.80;;;;;;;;;;5086020;28;20220;-84
2022/10/23 19:41:43;;;;;;;7.10;3.13;;;15.40;99.90;;;;;;5091729;28;20202;-85
2022/10/23 19:44:09;;;;;;;6.20;3.30;;;15.10;99.90;;;;;;5092342;28;20229;-84
2022/10/23 19:46:36;;;;;;;8.10;3.93;;;15.20;99.90;;;;;;5091197;28;20185;-85
2022/10/23 19:49:02;;;;;;;10.67;8.03;;;;;;;;;;5082800;28;20178;-84
2022/10/23 19:51:28;;;;;;;14.93;7.67;;;;;;;;;;5077811;28;20200;-84
2022/10/23 19:53:55;;;;;;;9.80;8.57;;;15.00;99.90;;;;;;5077001;28;20213;-84
2022/10/23 19:56:21;;;;;;;9.90;8.27;;;15.10;99.90;;;;;;5078090;28;20181;-85
2022/10/23 19:58:47;;;;;;;9.63;6.70;;;;;;;;;;5079181;28;20182;-83
2022/10/23 20:01:16;;;;;;;8.07;5.33;;;15.10;99.90;;;;;;5078516;28;20336;-84
2022/10/23 20:03:44;;;;;;;9.70;7.17;;;15.10;99.90;;;;;;5079361;28;20202;-82
2022/10/23 20:06:16;;;;;;;12.33;7.47;;;15.20;99.90;;;;;;5078035;28;20197;-84
2022/10/23 20:08:42;;;;;;;9.03;5.20;;;15.10;99.90;;;;;;5068983;28;20183;-86
2022/10/23 20:11:09;;;;;;;9.70;5.17;;;15.00;99.90;;;;;;5059455;28;20282;-85
2022/10/23 20:13:35;;;;;;;9.43;6.27;;;;;;;;;;5058860;28;20226;-85
2022/10/23 20:16:01;;;;;;;15.33;9.63;;;;;;;;;;5060353;28;20183;-83
2022/10/23 20:18:27;;;;;;;12.07;9.50;;;;;;;;;;5060743;28;20179;-84
2022/10/23 20:20:53;;;;;;;7.90;6.67;;;;;;;;;;5063000;28;20676;-84
2022/10/23 20:23:19;;;;;;;7.63;4.53;;;;;;;;;;5062616;28;20205;-81
2022/10/23 20:25:45;;;;;;;6.40;5.17;;;14.90;99.90;;;;;;5059620;28;20262;-84